Terminal Aerodrome Forecast
Issued by NWS

Current Version | Previous Version | Text Only | Print | Product List | Glossary Off
Versions: 1 2 3 4 5 6 7 8 9 10 11 12 13 14 15

000
FTUS41 KPBZ 281137
TAFMGW
TAF
KMGW 281137Z 2812/2912 12004KT P6SM SCT250
     FM281800 12008KT P6SM SCT040 BKN250
     FM282100 12008KT P6SM BKN070
     FM290300 12007KT P6SM VCSH BKN050=

USA.gov is the U.S. government's official web portal to all federal, state and local government web resources and services.